Time;durP1;ratioP1;P1;durP2;ratioP2;P2;SDS_P1;SDS_P2;PMS_P1;PMS_P2;Temp;Humidity;BMP_temperature;BMP_pressure;BME280_temperature;BME280_humidity;BME280_pressure;Samples;Min_cycle;Max_cycle;Signal;HPM_P1;HPM_P2
2023/01/03 00:00:22;;;;;;;1.10;0.63;;;13.80;39.50;;;;;;10528379;28;20238;-73
2023/01/03 00:05:26;;;;;;;0.80;0.70;;;13.80;39.50;;;;;;10527669;28;20755;-73
2023/01/03 00:10:30;;;;;;;0.80;0.70;;;13.80;39.50;;;;;;10531360;28;21051;-73
2023/01/03 00:15:35;;;;;;;0.60;0.60;;;13.70;39.50;;;;;;10533138;28;20867;-73
2023/01/03 00:20:38;;;;;;;0.90;0.80;;;13.70;39.60;;;;;;10528764;28;20284;-74
2023/01/03 00:25:42;;;;;;;0.87;0.70;;;13.60;39.50;;;;;;10532808;28;20711;-73
2023/01/03 00:30:45;;;;;;;0.60;0.60;;;13.70;39.70;;;;;;10530943;28;20748;-73
2023/01/03 00:35:49;;;;;;;0.83;0.83;;;13.60;39.60;;;;;;10531426;28;20235;-73
2023/01/03 00:40:53;;;;;;;0.70;0.70;;;13.60;39.60;;;;;;10531047;28;20219;-73
2023/01/03 00:45:56;;;;;;;0.70;0.70;;;13.60;39.60;;;;;;10528660;28;20720;-73
2023/01/03 00:51:06;;;;;;;0.60;0.60;;;13.50;39.60;;;;;;10531010;28;20306;-74
2023/01/03 00:56:13;;;;;;;0.70;0.70;;;13.50;39.80;;;;;;10528893;28;20227;-73
2023/01/03 01:01:19;;;;;;;0.70;0.70;;;13.40;39.80;;;;;;10531176;28;20718;-73
2023/01/03 01:06:25;;;;;;;0.70;0.70;;;13.40;39.80;;;;;;10528888;28;20250;-74
2023/01/03 01:11:30;;;;;;;0.70;0.70;;;13.40;39.80;;;;;;10529941;28;20228;-73
2023/01/03 01:16:33;;;;;;;0.90;0.90;;;13.40;39.80;;;;;;10530960;28;20397;-73
2023/01/03 01:21:37;;;;;;;0.80;0.60;;;13.40;39.70;;;;;;10529912;28;20219;-73
2023/01/03 01:26:41;;;;;;;0.77;0.77;;;13.40;39.60;;;;;;10528526;28;20289;-73
2023/01/03 01:31:45;;;;;;;0.67;0.67;;;13.40;39.70;;;;;;10526712;28;20257;-75
2023/01/03 01:36:49;;;;;;;0.80;0.80;;;13.40;39.60;;;;;;10528351;28;20227;-73
2023/01/03 01:47:33;;;;;;;0.70;0.70;;;13.30;39.60;;;;;;10526775;28;20240;-74
2023/01/03 01:52:40;;;;;;;1.47;0.70;;;13.30;39.60;;;;;;10527484;28;20219;-73
2023/01/03 01:57:45;;;;;;;0.60;0.60;;;13.20;39.50;;;;;;10522071;28;20603;-74
2023/01/03 02:02:51;;;;;;;0.70;0.70;;;13.20;39.70;;;;;;10525115;28;20228;-74
2023/01/03 02:07:55;;;;;;;1.60;0.83;;;13.20;39.80;;;;;;10526909;28;20294;-73
2023/01/03 02:13:09;;;;;;;0.87;0.60;;;13.10;39.70;;;;;;10524886;28;20723;-73
2023/01/03 02:18:22;;;;;;;0.70;0.70;;;13.10;39.90;;;;;;10522602;28;20683;-73
2023/01/03 02:23:55;;;;;;;0.80;0.80;;;13.10;39.90;;;;;;10522819;28;20227;-73
2023/01/03 02:29:33;;;;;;;0.60;0.60;;;13.10;39.80;;;;;;10526003;28;20230;-72
2023/01/03 02:34:45;;;;;;;0.70;0.70;;;13.10;39.80;;;;;;10528019;28;20227;-74
2023/01/03 02:39:54;;;;;;;0.63;0.63;;;13.10;39.80;;;;;;10524446;28;20298;-73
2023/01/03 02:45:06;;;;;;;0.70;0.70;;;13.10;39.90;;;;;;10524512;28;20223;-73
2023/01/03 02:50:12;;;;;;;0.70;0.70;;;13.10;40.00;;;;;;10522665;28;20277;-74
2023/01/03 02:55:19;;;;;;;0.70;0.70;;;13.10;39.90;;;;;;10524134;28;20228;-73
2023/01/03 03:00:28;;;;;;;0.70;0.70;;;13.00;39.80;;;;;;10525279;28;20300;-74
2023/01/03 03:05:37;;;;;;;2.63;0.70;;;13.10;39.90;;;;;;10518653;28;20234;-74
2023/01/03 03:16:46;;;;;;;0.77;0.77;;;13.00;39.60;;;;;;10418218;28;20227;-73
2023/01/03 03:32:29;;;;;;;0.80;0.80;;;12.80;39.70;;;;;;10524953;28;20234;-73
2023/01/03 03:37:38;;;;;;;0.90;0.90;;;12.80;39.70;;;;;;10532228;28;20231;-73
2023/01/03 03:48:11;;;;;;;0.90;0.70;;;12.60;39.90;;;;;;10532048;28;20239;-73
2023/01/03 03:53:20;;;;;;;0.80;0.80;;;12.60;40.10;;;;;;10532437;28;20231;-73
2023/01/03 03:58:29;;;;;;;0.80;0.80;;;12.60;40.10;;;;;;10533389;28;20231;-74
2023/01/03 04:03:33;;;;;;;0.73;0.73;;;12.60;40.00;;;;;;10532805;28;20769;-74
2023/01/03 04:08:37;;;;;;;0.87;0.60;;;12.70;39.90;;;;;;10533408;28;20220;-73
2023/01/03 04:13:41;;;;;;;0.70;0.70;;;12.70;39.90;;;;;;10533466;28;20232;-74
2023/01/03 04:18:44;;;;;;;0.70;0.70;;;12.70;39.90;;;;;;10533275;28;20227;-74
2023/01/03 04:23:49;;;;;;;0.63;0.63;;;12.70;39.90;;;;;;10528646;28;20254;-73
2023/01/03 04:28:52;;;;;;;0.90;0.90;;;12.60;39.90;;;;;;10529017;28;20219;-73
2023/01/03 04:33:55;;;;;;;0.87;0.87;;;12.60;39.80;;;;;;10532340;28;20239;-73
2023/01/03 04:38:59;;;;;;;0.73;0.73;;;12.60;39.90;;;;;;10530836;28;20235;-73
2023/01/03 04:44:03;;;;;;;2.40;1.00;;;12.50;40.00;;;;;;10528137;28;20240;-73
2023/01/03 04:49:09;;;;;;;1.00;1.00;;;12.50;40.00;;;;;;10532260;28;20262;-73
2023/01/03 04:54:14;;;;;;;1.30;1.20;;;12.50;40.20;;;;;;10530121;28;20247;-73
2023/01/03 04:59:17;;;;;;;1.00;1.00;;;12.50;40.20;;;;;;10532246;28;20239;-74
2023/01/03 05:04:20;;;;;;;1.07;1.07;;;12.50;40.10;;;;;;10530422;28;20609;-74
2023/01/03 05:09:26;;;;;;;1.00;1.00;;;12.50;40.20;;;;;;10528303;28;20284;-73
2023/01/03 05:14:29;;;;;;;0.97;0.93;;;12.40;40.20;;;;;;10530987;28;20238;-73
2023/01/03 05:19:33;;;;;;;1.10;1.00;;;12.40;40.00;;;;;;10531384;28;20235;-74
2023/01/03 05:29:58;;;;;;;1.17;1.10;;;12.40;40.20;;;;;;10528507;28;20230;-74
2023/01/03 05:35:01;;;;;;;1.30;1.20;;;12.40;40.20;;;;;;10528639;28;20223;-74
2023/01/03 05:40:07;;;;;;;1.93;1.23;;;12.40;40.20;;;;;;10526867;28;20234;-74
2023/01/03 05:45:11;;;;;;;0.90;0.90;;;12.30;40.40;;;;;;10521310;28;20242;-73
2023/01/03 05:50:14;;;;;;;1.20;1.10;;;12.30;40.40;;;;;;10529253;28;20234;-73
2023/01/03 05:55:18;;;;;;;1.50;1.40;;;12.30;40.40;;;;;;10528095;28;20232;-74
2023/01/03 06:00:22;;;;;;;2.80;2.60;;;12.30;40.70;;;;;;10529099;28;20339;-74
2023/01/03 06:05:25;;;;;;;2.87;1.90;;;12.30;40.50;;;;;;10527412;28;20239;-74
2023/01/03 06:10:30;;;;;;;2.27;1.90;;;12.30;40.40;;;;;;10529070;28;20240;-74
2023/01/03 06:15:33;;;;;;;2.70;2.50;;;12.20;40.70;;;;;;10524236;28;20281;-73
2023/01/03 06:20:36;;;;;;;1.60;1.50;;;12.10;41.50;;;;;;10526885;28;20243;-75
2023/01/03 06:25:40;;;;;;;1.87;1.77;;;12.10;40.70;;;;;;10528440;28;20693;-73
2023/01/03 06:30:43;;;;;;;1.60;1.50;;;12.10;41.10;;;;;;10523167;28;20707;-73
2023/01/03 06:35:46;;;;;;;1.60;1.50;;;12.00;40.80;;;;;;10525794;28;20228;-74
2023/01/03 06:40:51;;;;;;;1.80;1.70;;;12.10;40.90;;;;;;10526404;28;20703;-73
2023/01/03 06:56:41;;;;;;;1.70;1.60;;;12.10;41.00;;;;;;10523760;28;20235;-73
2023/01/03 07:01:44;;;;;;;1.90;1.80;;;12.10;41.00;;;;;;10526870;28;20230;-73
2023/01/03 07:06:48;;;;;;;2.00;1.90;;;12.10;40.90;;;;;;10525304;28;20651;-74
2023/01/03 07:11:52;;;;;;;4.40;4.00;;;12.10;40.90;;;;;;10523936;28;20796;-73
2023/01/03 07:16:56;;;;;;;3.80;3.50;;;12.00;41.00;;;;;;10522466;28;20711;-73
2023/01/03 07:21:59;;;;;;;3.37;3.07;;;12.00;41.00;;;;;;10523805;28;20695;-73
2023/01/03 07:27:03;;;;;;;3.77;3.47;;;11.90;41.20;;;;;;10527377;28;20231;-73
2023/01/03 07:32:06;;;;;;;3.17;2.90;;;11.80;41.50;;;;;;10524452;28;20238;-74
2023/01/03 07:37:10;;;;;;;2.57;2.40;;;11.80;41.50;;;;;;10525492;28;20240;-74
2023/01/03 07:47:36;;;;;;;2.43;2.23;;;11.80;41.50;;;;;;10512808;28;20242;-75
2023/01/03 07:52:39;;;;;;;2.63;2.30;;;11.80;41.50;;;;;;10516832;28;20232;-75
2023/01/03 07:57:43;;;;;;;2.37;1.97;;;11.80;41.50;;;;;;10517189;28;21093;-74
2023/01/03 08:02:47;;;;;;;4.07;1.90;;;11.80;41.50;;;;;;10513483;28;20767;-75
2023/01/03 08:07:52;;;;;;;2.43;2.10;;;11.80;41.60;;;;;;10515720;28;20312;-74
2023/01/03 08:18:19;;;;;;;6.57;5.87;;;11.80;41.60;;;;;;10520561;28;20285;-75
2023/01/03 08:23:23;;;;;;;5.00;4.40;;;11.80;41.50;;;;;;10531941;28;20231;-75
2023/01/03 08:28:27;;;;;;;5.63;5.13;;;11.80;41.50;;;;;;10528967;28;20238;-74
2023/01/03 08:33:36;;;;;;;7.97;6.00;;;11.80;41.60;;;;;;10531513;28;20258;-75
2023/01/03 08:38:44;;;;;;;5.93;5.33;;;11.80;42.00;;;;;;10529582;28;20227;-75
2023/01/03 08:43:49;;;;;;;4.77;4.37;;;11.80;42.00;;;;;;10528323;28;20227;-74
2023/01/03 08:48:52;;;;;;;6.70;5.67;;;11.90;42.20;;;;;;10531331;28;20224;-74
2023/01/03 08:53:55;;;;;;;6.60;6.00;;;11.90;41.60;;;;;;10526817;28;20230;-76
2023/01/03 08:59:00;;;;;;;6.17;5.57;;;11.80;41.50;;;;;;10531243;28;20718;-75
2023/01/03 09:04:04;;;;;;;4.90;4.50;;;11.90;42.10;;;;;;10528315;28;20722;-74
2023/01/03 09:09:08;;;;;;;3.47;3.17;;;11.80;41.80;;;;;;10529961;28;20707;-76
2023/01/03 09:14:13;;;;;;;3.60;2.90;;;11.80;42.10;;;;;;10530455;28;20323;-74
2023/01/03 09:19:16;;;;;;;3.20;2.50;;;11.80;42.30;;;;;;10530489;28;20596;-75
2023/01/03 09:24:19;;;;;;;2.97;2.70;;;11.80;42.10;;;;;;10527274;28;20247;-74
2023/01/03 09:29:24;;;;;;;3.07;2.77;;;11.80;42.20;;;;;;10530086;28;20228;-75
2023/01/03 09:34:27;;;;;;;3.50;3.20;;;11.80;42.60;;;;;;10523795;28;20243;-74
2023/01/03 09:39:30;;;;;;;3.67;3.37;;;11.80;42.30;;;;;;10529485;28;20232;-74
2023/01/03 09:44:35;;;;;;;3.47;2.93;;;11.90;42.40;;;;;;10528366;28;20236;-74
2023/01/03 09:49:39;;;;;;;3.33;2.80;;;11.90;42.80;;;;;;10527386;28;20232;-74
2023/01/03 10:06:04;;;;;;;3.27;2.83;;;12.00;42.90;;;;;;10526489;28;20246;-74
2023/01/03 10:11:09;;;;;;;2.83;2.63;;;12.00;43.30;;;;;;10525383;28;20228;-73
2023/01/03 10:16:24;;;;;;;3.60;2.47;;;12.00;42.80;;;;;;10529808;28;20937;-73
2023/01/03 10:21:37;;;;;;;2.90;2.70;;;12.10;43.10;;;;;;10526680;28;20228;-74
2023/01/03 10:26:40;;;;;;;3.37;3.10;;;12.10;43.10;;;;;;10523897;28;20231;-73
2023/01/03 10:32:00;;;;;;;3.50;3.20;;;12.20;42.50;;;;;;10526837;28;20237;-74
2023/01/03 10:37:16;;;;;;;3.33;3.13;;;12.30;43.20;;;;;;10524838;28;20239;-73
2023/01/03 10:42:19;;;;;;;3.10;2.90;;;12.40;42.80;;;;;;10525149;28;20237;-75
2023/01/03 10:47:26;;;;;;;3.30;3.00;;;12.50;42.20;;;;;;10515311;28;20577;-73
2023/01/03 10:52:33;;;;;;;3.97;3.60;;;12.50;42.10;;;;;;10516855;28;20912;-74
2023/01/03 10:57:39;;;;;;;3.67;3.37;;;12.50;42.10;;;;;;10518879;28;20232;-78
2023/01/03 11:02:47;;;;;;;3.90;3.60;;;12.50;42.10;;;;;;10521865;28;20652;-73
2023/01/03 11:07:55;;;;;;;4.03;3.70;;;12.50;42.10;;;;;;10518786;28;20235;-73
2023/01/03 11:12:58;;;;;;;3.97;3.63;;;12.50;41.70;;;;;;10518854;28;20242;-73
2023/01/03 11:18:05;;;;;;;3.40;3.20;;;12.40;41.70;;;;;;10517468;28;20231;-74
2023/01/03 11:23:16;;;;;;;4.03;3.47;;;12.40;41.70;;;;;;10519226;28;20242;-75
2023/01/03 11:28:46;;;;;;;3.40;3.10;;;12.30;41.50;;;;;;10519778;28;20583;-74
2023/01/03 11:34:06;;;;;;;3.70;3.40;;;12.20;41.50;;;;;;10522964;28;20231;-73
2023/01/03 11:39:32;;;;;;;3.43;3.07;;;12.10;41.80;;;;;;10523465;28;20235;-75
2023/01/03 11:45:09;;;;;;;3.40;3.20;;;12.10;41.80;;;;;;10522985;28;20688;-74
2023/01/03 11:50:27;;;;;;;5.07;3.70;;;12.10;41.90;;;;;;10508229;28;20227;-75
2023/01/03 11:55:54;;;;;;;6.10;5.50;;;12.20;41.90;;;;;;10529253;28;20310;-74
2023/01/03 12:01:06;;;;;;;4.93;4.40;;;12.20;41.90;;;;;;10531875;28;20278;-75
2023/01/03 12:06:17;;;;;;;4.73;4.33;;;12.30;42.00;;;;;;10535123;28;20255;-75
2023/01/03 12:11:47;;;;;;;4.47;4.07;;;12.30;42.00;;;;;;10529538;28;20239;-74
2023/01/03 12:16:57;;;;;;;3.53;3.23;;;12.30;42.00;;;;;;10538441;28;20228;-75
2023/01/03 12:22:06;;;;;;;3.90;3.60;;;12.40;42.00;;;;;;10536775;28;20239;-74
2023/01/03 12:27:14;;;;;;;4.40;4.00;;;12.40;42.00;;;;;;10536411;28;20238;-74
2023/01/03 12:32:23;;;;;;;3.63;3.33;;;12.40;41.60;;;;;;10536144;28;20228;-74
2023/01/03 12:37:33;;;;;;;4.27;3.70;;;12.40;42.00;;;;;;10535626;28;21042;-75
2023/01/03 12:42:40;;;;;;;3.20;2.90;;;12.40;42.00;;;;;;10535105;28;20267;-74
2023/01/03 12:47:50;;;;;;;2.97;2.77;;;12.40;42.50;;;;;;10535845;28;20236;-75
2023/01/03 12:53:02;;;;;;;2.60;2.40;;;12.40;41.30;;;;;;10536661;28;20231;-75
2023/01/03 12:58:30;;;;;;;2.47;2.27;;;12.50;40.60;;;;;;10532074;28;20236;-75
2023/01/03 13:03:45;;;;;;;3.97;3.00;;;12.40;40.60;;;;;;10535854;28;20227;-74
2023/01/03 13:08:56;;;;;;;2.90;2.70;;;12.40;40.60;;;;;;10526755;28;20719;-74
2023/01/03 13:14:05;;;;;;;3.07;2.83;;;12.40;40.80;;;;;;10533403;28;20224;-75
2023/01/03 13:19:54;;;;;;;2.70;2.50;;;12.40;40.90;;;;;;10533521;28;20600;-75
2023/01/03 13:25:29;;;;;;;2.70;2.50;;;12.40;40.90;;;;;;10528051;28;20238;-75
2023/01/03 13:30:34;;;;;;;2.70;2.50;;;12.50;40.50;;;;;;10533516;28;20238;-75
2023/01/03 13:35:53;;;;;;;4.60;3.33;;;12.50;40.70;;;;;;10524129;28;20712;-77
2023/01/03 13:41:00;;;;;;;2.70;2.50;;;12.50;40.60;;;;;;10532804;28;20231;-75
2023/01/03 13:46:23;;;;;;;3.03;2.83;;;12.50;40.90;;;;;;10535977;28;20227;-75
2023/01/03 13:51:50;;;;;;;3.33;3.13;;;12.50;40.70;;;;;;10537031;28;20235;-75
2023/01/03 13:57:02;;;;;;;4.80;2.80;;;12.60;40.70;;;;;;10530984;28;20227;-75
2023/01/03 14:02:44;;;;;;;4.00;3.30;;;12.60;41.10;;;;;;10523539;28;20261;-76
2023/01/03 14:08:14;;;;;;;4.03;3.63;;;12.60;42.20;;;;;;10526803;28;20333;-75
2023/01/03 14:13:41;;;;;;;4.43;4.03;;;12.60;40.90;;;;;;10521774;28;20232;-75
2023/01/03 14:18:49;;;;;;;4.20;3.90;;;12.60;40.70;;;;;;10531226;22;20240;-69
2023/01/03 14:23:58;;;;;;;4.20;3.90;;;12.60;40.80;;;;;;10439187;28;20225;-69
2023/01/03 14:29:09;;;;;;;5.00;3.83;;;12.60;40.80;;;;;;10439796;28;20604;-69
2023/01/03 14:34:21;;;;;;;4.73;4.33;;;12.60;42.20;;;;;;10447856;28;20240;-69
2023/01/03 14:39:31;;;;;;;4.93;4.53;;;12.70;41.60;;;;;;10432518;28;20237;-69
2023/01/03 14:44:35;;;;;;;4.47;4.07;;;12.70;41.20;;;;;;10449940;28;20230;-69
2023/01/03 14:49:44;;;;;;;3.90;3.60;;;12.80;40.90;;;;;;10445024;28;20236;-69
2023/01/03 14:54:51;;;;;;;4.57;4.27;;;12.80;40.80;;;;;;10444000;28;20243;-69
2023/01/03 15:00:00;;;;;;;5.50;5.10;;;12.70;40.70;;;;;;10427369;28;20739;-72
2023/01/03 15:05:05;;;;;;;4.40;4.00;;;12.70;40.80;;;;;;10436907;28;20241;-69
2023/01/03 15:10:18;;;;;;;4.80;4.40;;;12.60;41.20;;;;;;10430840;28;20235;-69
2023/01/03 15:15:27;;;;;;;4.73;4.43;;;12.60;41.20;;;;;;10432815;28;20712;-72
2023/01/03 15:20:36;;;;;;;4.93;4.43;;;12.70;41.20;;;;;;10436182;28;20588;-69
2023/01/03 15:25:41;;;;;;;4.53;4.13;;;12.60;41.00;;;;;;10433665;28;20229;-69
2023/01/03 15:31:28;;;;;;;3.93;3.53;;;12.60;41.20;;;;;;10442665;28;20232;-69
2023/01/03 15:36:32;;;;;;;4.23;3.90;;;12.60;41.20;;;;;;10449044;28;20230;-69
2023/01/03 15:47:23;;;;;;;4.43;4.13;;;12.60;40.60;;;;;;10439997;28;20299;-69
2023/01/03 15:52:27;;;;;;;4.90;4.40;;;12.50;41.30;;;;;;10437102;28;20252;-70
2023/01/03 15:57:31;;;;;;;3.97;3.63;;;12.50;40.60;;;;;;10439187;28;20237;-72
2023/01/03 16:02:35;;;;;;;6.17;5.37;;;12.40;41.00;;;;;;10448675;28;20243;-70
2023/01/03 16:07:39;;;;;;;14.90;10.77;;;12.40;40.30;;;;;;10442962;28;20225;-74
2023/01/03 16:12:42;;;;;;;16.37;12.13;;;12.30;40.00;;;;;;10442975;28;20225;-70
2023/01/03 16:17:48;;;;;;;11.53;10.33;;;12.30;40.20;;;;;;10431067;28;20256;-70
2023/01/03 16:22:52;;;;;;;9.40;8.40;;;12.10;39.80;;;;;;10442655;28;20229;-70
2023/01/03 16:28:03;;;;;;;9.37;8.43;;;12.00;39.60;;;;;;10432710;28;20217;-70
2023/01/03 16:33:19;;;;;;;14.40;11.77;;;12.00;39.70;;;;;;10441832;28;20739;-70
2023/01/03 16:38:24;;;;;;;16.67;13.70;;;11.80;39.30;;;;;;10445971;28;20321;-70
2023/01/03 16:43:27;;;;;;;14.87;12.57;;;11.70;39.20;;;;;;10435706;28;20316;-70
2023/01/03 16:48:38;;;;;;;15.83;13.27;;;11.60;39.30;;;;;;10448475;28;20660;-67
2023/01/03 16:53:41;;;;;;;10.70;9.60;;;11.50;39.10;;;;;;10438971;28;20229;-70
2023/01/03 16:58:44;;;;;;;11.57;10.37;;;11.40;39.30;;;;;;10437115;28;20232;-70
2023/01/03 17:03:49;;;;;;;11.17;10.07;;;11.30;39.30;;;;;;10437489;28;20233;-69
2023/01/03 17:08:52;;;;;;;10.27;8.43;;;11.20;39.10;;;;;;10445872;28;20331;-69
2023/01/03 17:13:59;;;;;;;8.00;7.30;;;11.00;39.00;;;;;;10438411;28;20221;-69
2023/01/03 17:19:04;;;;;;;7.40;6.20;;;10.90;38.90;;;;;;10444934;28;20237;-69
2023/01/03 17:24:13;;;;;;;8.53;7.73;;;10.80;39.00;;;;;;10444783;28;20257;-69
2023/01/03 17:29:19;;;;;;;9.07;8.27;;;10.60;39.00;;;;;;10444692;28;20236;-69
2023/01/03 17:34:26;;;;;;;8.93;8.13;;;10.50;39.30;;;;;;10441208;28;20285;-69
2023/01/03 17:39:29;;;;;;;12.43;11.23;;;10.40;39.30;;;;;;10442890;28;20286;-69
2023/01/03 17:44:32;;;;;;;10.83;9.80;;;10.40;39.40;;;;;;10445193;28;20765;-69
2023/01/03 17:49:37;;;;;;;12.67;11.40;;;10.30;39.30;;;;;;10444187;28;20244;-72
2023/01/03 17:54:41;;;;;;;11.30;10.20;;;10.20;39.10;;;;;;10446817;28;20233;-70
2023/01/03 17:59:44;;;;;;;10.40;9.40;;;10.10;39.00;;;;;;10444953;28;20243;-70
2023/01/03 18:04:48;;;;;;;11.67;10.57;;;10.00;38.80;;;;;;10439503;28;20233;-70
2023/01/03 18:10:16;;;;;;;16.43;14.37;;;9.90;39.60;;;;;;10443408;28;20311;-70
2023/01/03 18:15:21;;;;;;;17.53;15.83;;;9.80;39.70;;;;;;10434665;28;20623;-70
2023/01/03 18:20:26;;;;;;;22.70;20.40;;;9.60;39.70;;;;;;10442513;28;20255;-70
2023/01/03 18:25:30;;;;;;;19.87;18.07;;;9.50;40.00;;;;;;10445033;28;20717;-69
2023/01/03 18:30:33;;;;;;;17.30;15.60;;;9.40;40.40;;;;;;10431093;28;20717;-67
2023/01/03 18:35:37;;;;;;;14.13;12.83;;;9.40;40.40;;;;;;10451123;28;20233;-72
2023/01/03 18:40:41;;;;;;;13.80;12.50;;;9.30;40.30;;;;;;10444979;28;20232;-72
2023/01/03 18:45:44;;;;;;;18.00;16.20;;;9.30;40.30;;;;;;10435831;28;20225;-72
2023/01/03 18:50:50;;;;;;;16.93;15.13;;;9.20;40.20;;;;;;10464028;28;20751;-72
2023/01/03 18:56:01;;;;;;;22.03;19.73;;;9.20;40.20;;;;;;10454154;28;20842;-72
2023/01/03 19:01:05;;;;;;;18.20;16.23;;;9.10;40.10;;;;;;10451521;28;20755;-71
2023/01/03 19:06:17;;;;;;;17.47;13.90;;;9.10;40.10;;;;;;10449390;28;20221;-71
2023/01/03 19:11:27;;;;;;;11.63;10.43;;;9.00;40.20;;;;;;10453406;28;20235;-71
2023/01/03 19:16:32;;;;;;;14.60;11.67;;;8.90;40.00;;;;;;10450199;28;20233;-72
2023/01/03 19:21:39;;;;;;;11.80;10.70;;;8.90;40.00;;;;;;10449632;28;20240;-72
2023/01/03 19:26:46;;;;;;;11.47;10.27;;;8.90;40.40;;;;;;10474481;28;20290;-72
2023/01/03 19:31:52;;;;;;;19.30;10.47;;;8.80;40.20;;;;;;10455862;28;20244;-72
2023/01/03 19:36:58;;;;;;;26.10;16.13;;;8.80;39.90;;;;;;10442957;28;20314;-69
2023/01/03 19:47:22;;;;;;;21.73;19.83;;;8.50;39.70;;;;;;10438063;28;20240;-69
2023/01/03 19:52:27;;;;;;;22.10;14.33;;;8.30;40.00;;;;;;10438360;28;20316;-67
2023/01/03 19:57:33;;;;;;;24.87;19.67;;;8.10;40.20;;;;;;10423406;28;20398;-70
2023/01/03 20:02:39;;;;;;;53.93;47.23;;;8.00;40.30;;;;;;10423785;28;20225;-70
2023/01/03 20:07:45;;;;;;;49.77;27.50;;;7.80;40.20;;;;;;10423855;28;20998;-70
2023/01/03 20:12:52;;;;;;;18.83;15.37;;;7.70;40.50;;;;;;10430639;28;20964;-70
2023/01/03 20:17:56;;;;;;;18.30;11.40;;;7.50;40.60;;;;;;10427890;28;20233;-68
2023/01/03 20:23:03;;;;;;;18.17;9.47;;;7.40;40.90;;;;;;10446486;28;20221;-72
2023/01/03 20:28:16;;;;;;;24.03;8.80;;;7.30;41.30;;;;;;10441590;28;20229;-72
2023/01/03 20:33:21;;;;;;;19.80;8.93;;;7.20;41.40;;;;;;10443671;28;20233;-72
2023/01/03 20:38:26;;;;;;;7.67;6.97;;;7.10;41.00;;;;;;10444541;28;21342;-72
2023/01/03 20:43:29;;;;;;;10.40;9.40;;;7.10;41.40;;;;;;10436932;28;20232;-68
2023/01/03 20:48:32;;;;;;;16.73;12.83;;;7.10;41.60;;;;;;10448049;28;20242;-70
2023/01/03 20:53:37;;;;;;;13.30;12.03;;;7.10;41.60;;;;;;10438042;28;20224;-69
2023/01/03 20:58:45;;;;;;;14.53;11.40;;;7.20;41.60;;;;;;10433083;28;20229;-69
2023/01/03 21:03:48;;;;;;;37.37;11.07;;;7.20;41.20;;;;;;10445056;28;20228;-72
2023/01/03 21:08:56;;;;;;;31.43;10.97;;;7.20;41.20;;;;;;10430439;28;20302;-72
2023/01/03 21:14:01;;;;;;;34.03;10.97;;;7.20;41.20;;;;;;10456368;28;20347;-72
2023/01/03 21:19:07;;;;;;;31.53;12.60;;;7.20;40.90;;;;;;10446740;28;20647;-72
2023/01/03 21:24:14;;;;;;;30.97;13.43;;;7.00;40.80;;;;;;10447783;28;20776;-69
2023/01/03 21:29:17;;;;;;;34.30;14.40;;;6.90;40.90;;;;;;10454283;28;20260;-68
2023/01/03 21:34:21;;;;;;;11.97;10.67;;;6.80;40.80;;;;;;10442924;28;20224;-68
2023/01/03 21:39:26;;;;;;;13.10;11.80;;;6.60;41.10;;;;;;10445010;28;20229;-71
2023/01/03 21:44:29;;;;;;;28.03;11.07;;;6.60;41.70;;;;;;10443392;28;20235;-72
2023/01/03 21:49:32;;;;;;;15.00;11.77;;;6.60;42.20;;;;;;10439361;28;20244;-70
2023/01/03 21:54:37;;;;;;;10.30;9.40;;;6.60;41.30;;;;;;10442032;28;20228;-70
2023/01/03 21:59:40;;;;;;;10.40;9.40;;;6.60;41.40;;;;;;10439216;28;20240;-67
2023/01/03 22:04:45;;;;;;;17.40;10.43;;;6.50;41.10;;;;;;10439357;28;20232;-71
2023/01/03 22:15:11;;;;;;;12.97;9.37;;;6.40;41.30;;;;;;10435677;28;20319;-71
2023/01/03 22:20:17;;;;;;;9.23;8.33;;;6.40;41.10;;;;;;10437412;28;20334;-67
2023/01/03 22:25:23;;;;;;;8.90;8.10;;;6.30;41.50;;;;;;10439584;28;20224;-67
2023/01/03 22:30:26;;;;;;;12.60;9.57;;;6.20;41.60;;;;;;10443219;28;20228;-71
2023/01/03 22:35:29;;;;;;;21.33;8.83;;;6.20;41.60;;;;;;10434959;28;20228;-69
2023/01/03 22:40:34;;;;;;;10.93;8.07;;;6.30;41.50;;;;;;10441806;28;20618;-71
2023/01/03 22:45:38;;;;;;;28.90;9.30;;;6.20;41.50;;;;;;10443982;28;20658;-71
2023/01/03 22:50:42;;;;;;;22.33;9.10;;;6.10;41.60;;;;;;10442286;28;20238;-71
2023/01/03 22:55:46;;;;;;;31.57;8.33;;;6.10;41.60;;;;;;10440557;28;20233;-72
2023/01/03 23:00:49;;;;;;;33.90;9.00;;;5.90;41.70;;;;;;10431093;28;20224;-68
2023/01/03 23:05:53;;;;;;;43.57;8.97;;;5.90;41.90;;;;;;10428398;28;20237;-68
2023/01/03 23:16:21;;;;;;;20.17;7.37;;;5.70;43.20;;;;;;10436221;28;20235;-68
2023/01/03 23:21:24;;;;;;;21.57;7.80;;;5.70;42.50;;;;;;10438602;28;20812;-67
2023/01/03 23:26:29;;;;;;;15.83;8.17;;;5.80;42.70;;;;;;10431115;28;20225;-67
2023/01/03 23:31:32;;;;;;;20.67;8.03;;;5.90;42.90;;;;;;10432547;28;20716;-66
2023/01/03 23:36:35;;;;;;;20.23;8.10;;;5.90;42.60;;;;;;10433231;28;20275;-68
2023/01/03 23:41:40;;;;;;;35.20;8.47;;;5.90;42.90;;;;;;10437686;28;20703;-68
2023/01/03 23:46:43;;;;;;;9.43;6.57;;;5.90;43.40;;;;;;10437476;28;20236;-68
2023/01/03 23:51:46;;;;;;;18.27;7.90;;;6.00;43.00;;;;;;10436533;28;20587;-68
2023/01/03 23:56:51;;;;;;;7.60;6.90;;;6.00;42.80;;;;;;10449871;28;20232;-68
